sensor_id;sensor_type;location;lat;lon;timestamp;P1;durP1;ratioP1;P2;durP2;ratioP2
55364;SDS011;41245;45.384;20.390;2023-07-30T00:01:42;17.02;;;6.72;;
55364;SDS011;41245;45.384;20.390;2023-07-30T00:04:08;19.52;;;7.53;;
55364;SDS011;41245;45.384;20.390;2023-07-30T00:06:34;16.60;;;7.75;;
55364;SDS011;41245;45.384;20.390;2023-07-30T00:09:00;11.15;;;7.57;;
55364;SDS011;41245;45.384;20.390;2023-07-30T00:11:26;13.38;;;8.23;;
55364;SDS011;41245;45.384;20.390;2023-07-30T00:13:52;14.98;;;6.72;;
55364;SDS011;41245;45.384;20.390;2023-07-30T00:16:18;9.82;;;7.03;;
55364;SDS011;41245;45.384;20.390;2023-07-30T00:18:44;11.82;;;6.93;;
55364;SDS011;41245;45.384;20.390;2023-07-30T00:21:10;14.77;;;7.25;;
55364;SDS011;41245;45.384;20.390;2023-07-30T00:23:36;12.85;;;7.35;;
55364;SDS011;41245;45.384;20.390;2023-07-30T00:26:02;11.20;;;7.25;;
55364;SDS011;41245;45.384;20.390;2023-07-30T00:28:28;16.67;;;7.32;;
55364;SDS011;41245;45.384;20.390;2023-07-30T00:30:54;12.77;;;7.85;;
55364;SDS011;41245;45.384;20.390;2023-07-30T00:33:20;13.88;;;6.75;;
55364;SDS011;41245;45.384;20.390;2023-07-30T00:35:46;15.05;;;6.85;;
55364;SDS011;41245;45.384;20.390;2023-07-30T00:38:12;15.32;;;7.07;;
55364;SDS011;41245;45.384;20.390;2023-07-30T00:40:40;15.10;;;6.50;;
55364;SDS011;41245;45.384;20.390;2023-07-30T00:43:08;12.13;;;6.47;;
55364;SDS011;41245;45.384;20.390;2023-07-30T00:45:34;15.48;;;6.40;;
55364;SDS011;41245;45.384;20.390;2023-07-30T00:48:01;13.57;;;6.32;;
55364;SDS011;41245;45.384;20.390;2023-07-30T00:50:27;13.15;;;6.68;;
55364;SDS011;41245;45.384;20.390;2023-07-30T00:52:53;15.48;;;7.63;;
55364;SDS011;41245;45.384;20.390;2023-07-30T00:55:19;14.73;;;7.07;;
55364;SDS011;41245;45.384;20.390;2023-07-30T00:57:45;14.43;;;6.80;;
55364;SDS011;41245;45.384;20.390;2023-07-30T01:00:12;11.93;;;6.82;;
55364;SDS011;41245;45.384;20.390;2023-07-30T01:02:38;9.95;;;6.47;;
55364;SDS011;41245;45.384;20.390;2023-07-30T01:05:04;12.88;;;7.18;;
55364;SDS011;41245;45.384;20.390;2023-07-30T01:07:30;15.07;;;6.55;;
55364;SDS011;41245;45.384;20.390;2023-07-30T01:09:56;7.78;;;6.35;;
55364;SDS011;41245;45.384;20.390;2023-07-30T01:12:23;16.60;;;6.75;;
55364;SDS011;41245;45.384;20.390;2023-07-30T01:14:49;14.60;;;6.97;;
55364;SDS011;41245;45.384;20.390;2023-07-30T01:17:16;12.80;;;6.70;;
55364;SDS011;41245;45.384;20.390;2023-07-30T01:19:42;12.15;;;6.80;;
55364;SDS011;41245;45.384;20.390;2023-07-30T01:22:08;18.13;;;6.95;;
55364;SDS011;41245;45.384;20.390;2023-07-30T01:24:34;11.50;;;6.32;;
55364;SDS011;41245;45.384;20.390;2023-07-30T01:27:07;10.30;;;6.78;;
55364;SDS011;41245;45.384;20.390;2023-07-30T01:29:45;16.17;;;6.78;;
55364;SDS011;41245;45.384;20.390;2023-07-30T01:32:16;14.73;;;6.80;;
55364;SDS011;41245;45.384;20.390;2023-07-30T01:34:43;13.20;;;6.80;;
55364;SDS011;41245;45.384;20.390;2023-07-30T01:37:12;10.63;;;6.43;;
55364;SDS011;41245;45.384;20.390;2023-07-30T01:39:39;13.85;;;6.07;;
55364;SDS011;41245;45.384;20.390;2023-07-30T01:42:06;11.95;;;6.50;;
55364;SDS011;41245;45.384;20.390;2023-07-30T01:44:32;14.13;;;8.05;;
55364;SDS011;41245;45.384;20.390;2023-07-30T01:46:58;16.45;;;6.97;;
55364;SDS011;41245;45.384;20.390;2023-07-30T01:49:24;9.07;;;6.93;;
55364;SDS011;41245;45.384;20.390;2023-07-30T01:51:50;11.43;;;6.00;;
55364;SDS011;41245;45.384;20.390;2023-07-30T01:54:16;11.98;;;6.65;;
55364;SDS011;41245;45.384;20.390;2023-07-30T01:56:42;10.88;;;7.05;;
55364;SDS011;41245;45.384;20.390;2023-07-30T01:59:08;11.35;;;7.22;;
55364;SDS011;41245;45.384;20.390;2023-07-30T02:01:34;9.07;;;6.80;;
55364;SDS011;41245;45.384;20.390;2023-07-30T02:04:00;12.77;;;6.93;;
55364;SDS011;41245;45.384;20.390;2023-07-30T02:06:26;12.95;;;6.85;;
55364;SDS011;41245;45.384;20.390;2023-07-30T02:08:52;10.88;;;7.50;;
55364;SDS011;41245;45.384;20.390;2023-07-30T02:11:18;9.60;;;6.90;;
55364;SDS011;41245;45.384;20.390;2023-07-30T02:13:44;12.13;;;7.22;;
55364;SDS011;41245;45.384;20.390;2023-07-30T02:16:10;13.52;;;6.75;;
55364;SDS011;41245;45.384;20.390;2023-07-30T02:18:36;10.38;;;6.93;;
55364;SDS011;41245;45.384;20.390;2023-07-30T02:21:03;10.35;;;7.40;;
55364;SDS011;41245;45.384;20.390;2023-07-30T02:23:29;15.43;;;7.32;;
55364;SDS011;41245;45.384;20.390;2023-07-30T02:25:55;12.48;;;7.70;;
55364;SDS011;41245;45.384;20.390;2023-07-30T02:28:21;12.25;;;6.95;;
55364;SDS011;41245;45.384;20.390;2023-07-30T02:30:47;15.20;;;7.22;;
55364;SDS011;41245;45.384;20.390;2023-07-30T02:33:13;11.75;;;7.22;;
55364;SDS011;41245;45.384;20.390;2023-07-30T02:35:39;13.55;;;6.63;;
55364;SDS011;41245;45.384;20.390;2023-07-30T02:38:05;18.00;;;8.23;;
55364;SDS011;41245;45.384;20.390;2023-07-30T02:40:31;10.45;;;7.22;;
55364;SDS011;41245;45.384;20.390;2023-07-30T02:42:57;14.35;;;7.35;;
55364;SDS011;41245;45.384;20.390;2023-07-30T02:45:23;12.70;;;7.70;;
55364;SDS011;41245;45.384;20.390;2023-07-30T02:47:49;19.25;;;8.13;;
55364;SDS011;41245;45.384;20.390;2023-07-30T02:50:15;14.35;;;6.93;;
55364;SDS011;41245;45.384;20.390;2023-07-30T02:52:41;18.67;;;8.70;;
55364;SDS011;41245;45.384;20.390;2023-07-30T02:55:08;20.42;;;8.40;;
55364;SDS011;41245;45.384;20.390;2023-07-30T02:57:34;12.02;;;8.85;;
55364;SDS011;41245;45.384;20.390;2023-07-30T03:00:00;15.63;;;8.10;;
55364;SDS011;41245;45.384;20.390;2023-07-30T03:02:26;11.48;;;8.30;;
55364;SDS011;41245;45.384;20.390;2023-07-30T03:04:52;10.25;;;8.05;;
55364;SDS011;41245;45.384;20.390;2023-07-30T03:07:18;14.73;;;8.48;;
55364;SDS011;41245;45.384;20.390;2023-07-30T03:09:45;9.20;;;7.43;;
55364;SDS011;41245;45.384;20.390;2023-07-30T03:12:11;12.05;;;8.75;;
55364;SDS011;41245;45.384;20.390;2023-07-30T03:14:37;16.98;;;9.02;;
55364;SDS011;41245;45.384;20.390;2023-07-30T03:17:03;15.02;;;8.98;;
55364;SDS011;41245;45.384;20.390;2023-07-30T03:19:30;13.45;;;7.97;;
55364;SDS011;41245;45.384;20.390;2023-07-30T03:21:56;14.18;;;9.65;;
55364;SDS011;41245;45.384;20.390;2023-07-30T03:24:22;10.20;;;8.18;;
55364;SDS011;41245;45.384;20.390;2023-07-30T03:26:48;13.55;;;8.23;;
55364;SDS011;41245;45.384;20.390;2023-07-30T03:29:14;14.23;;;8.20;;
55364;SDS011;41245;45.384;20.390;2023-07-30T03:31:40;11.00;;;7.82;;
55364;SDS011;41245;45.384;20.390;2023-07-30T03:34:06;13.23;;;9.02;;
55364;SDS011;41245;45.384;20.390;2023-07-30T03:36:32;11.15;;;7.90;;
55364;SDS011;41245;45.384;20.390;2023-07-30T03:38:58;13.18;;;8.45;;
55364;SDS011;41245;45.384;20.390;2023-07-30T03:41:25;13.85;;;8.32;;
55364;SDS011;41245;45.384;20.390;2023-07-30T03:43:51;22.58;;;8.70;;
55364;SDS011;41245;45.384;20.390;2023-07-30T03:46:17;14.52;;;8.10;;
55364;SDS011;41245;45.384;20.390;2023-07-30T03:48:43;12.88;;;7.82;;
55364;SDS011;41245;45.384;20.390;2023-07-30T03:51:09;15.63;;;7.82;;
55364;SDS011;41245;45.384;20.390;2023-07-30T03:53:35;14.10;;;10.57;;
55364;SDS011;41245;45.384;20.390;2023-07-30T03:56:01;20.35;;;14.02;;
55364;SDS011;41245;45.384;20.390;2023-07-30T03:58:27;34.72;;;18.33;;
55364;SDS011;41245;45.384;20.390;2023-07-30T04:00:55;27.67;;;18.48;;
55364;SDS011;41245;45.384;20.390;2023-07-30T04:03:21;26.40;;;17.77;;
55364;SDS011;41245;45.384;20.390;2023-07-30T04:05:47;29.05;;;17.40;;
55364;SDS011;41245;45.384;20.390;2023-07-30T04:08:13;21.42;;;15.02;;
55364;SDS011;41245;45.384;20.390;2023-07-30T04:10:39;19.63;;;14.73;;
55364;SDS011;41245;45.384;20.390;2023-07-30T04:13:05;23.02;;;11.75;;
55364;SDS011;41245;45.384;20.390;2023-07-30T04:15:33;20.13;;;10.85;;
55364;SDS011;41245;45.384;20.390;2023-07-30T04:17:59;20.10;;;9.57;;
55364;SDS011;41245;45.384;20.390;2023-07-30T04:20:25;15.02;;;8.13;;
55364;SDS011;41245;45.384;20.390;2023-07-30T04:22:51;12.73;;;8.93;;
55364;SDS011;41245;45.384;20.390;2023-07-30T04:25:17;14.98;;;7.95;;
55364;SDS011;41245;45.384;20.390;2023-07-30T04:27:43;16.33;;;8.13;;
55364;SDS011;41245;45.384;20.390;2023-07-30T04:30:10;18.20;;;7.80;;
55364;SDS011;41245;45.384;20.390;2023-07-30T04:32:36;11.90;;;7.90;;
55364;SDS011;41245;45.384;20.390;2023-07-30T04:35:02;16.08;;;7.82;;
55364;SDS011;41245;45.384;20.390;2023-07-30T04:37:28;10.52;;;8.10;;
55364;SDS011;41245;45.384;20.390;2023-07-30T04:39:54;14.10;;;7.45;;
55364;SDS011;41245;45.384;20.390;2023-07-30T04:42:20;11.48;;;6.88;;
55364;SDS011;41245;45.384;20.390;2023-07-30T04:44:46;11.45;;;7.13;;
55364;SDS011;41245;45.384;20.390;2023-07-30T04:47:12;11.63;;;8.38;;
55364;SDS011;41245;45.384;20.390;2023-07-30T04:49:38;10.02;;;7.30;;
55364;SDS011;41245;45.384;20.390;2023-07-30T04:52:06;11.73;;;7.25;;
55364;SDS011;41245;45.384;20.390;2023-07-30T04:54:32;11.75;;;7.57;;
55364;SDS011;41245;45.384;20.390;2023-07-30T04:56:58;14.88;;;7.22;;
55364;SDS011;41245;45.384;20.390;2023-07-30T04:59:25;11.60;;;6.35;;
55364;SDS011;41245;45.384;20.390;2023-07-30T05:01:51;12.05;;;6.40;;
55364;SDS011;41245;45.384;20.390;2023-07-30T05:04:17;11.25;;;5.85;;
55364;SDS011;41245;45.384;20.390;2023-07-30T05:06:43;10.50;;;5.68;;
55364;SDS011;41245;45.384;20.390;2023-07-30T05:09:09;9.93;;;6.25;;
55364;SDS011;41245;45.384;20.390;2023-07-30T05:11:36;10.52;;;5.50;;
55364;SDS011;41245;45.384;20.390;2023-07-30T05:14:02;9.10;;;5.10;;
55364;SDS011;41245;45.384;20.390;2023-07-30T05:16:28;11.30;;;6.32;;
55364;SDS011;41245;45.384;20.390;2023-07-30T05:18:54;7.05;;;6.07;;
55364;SDS011;41245;45.384;20.390;2023-07-30T05:21:20;12.52;;;5.40;;
55364;SDS011;41245;45.384;20.390;2023-07-30T05:23:46;11.27;;;5.93;;
55364;SDS011;41245;45.384;20.390;2023-07-30T05:26:12;8.60;;;5.10;;
55364;SDS011;41245;45.384;20.390;2023-07-30T05:28:38;6.95;;;4.75;;
55364;SDS011;41245;45.384;20.390;2023-07-30T05:31:04;8.75;;;5.93;;
55364;SDS011;41245;45.384;20.390;2023-07-30T05:33:30;9.45;;;4.90;;
55364;SDS011;41245;45.384;20.390;2023-07-30T05:35:57;9.73;;;5.60;;
55364;SDS011;41245;45.384;20.390;2023-07-30T05:38:23;9.32;;;5.50;;
55364;SDS011;41245;45.384;20.390;2023-07-30T05:40:49;11.35;;;5.90;;
55364;SDS011;41245;45.384;20.390;2023-07-30T05:43:15;8.52;;;5.35;;
55364;SDS011;41245;45.384;20.390;2023-07-30T05:45:41;8.18;;;4.78;;
55364;SDS011;41245;45.384;20.390;2023-07-30T05:48:07;8.13;;;4.28;;
55364;SDS011;41245;45.384;20.390;2023-07-30T05:50:33;10.35;;;4.43;;
55364;SDS011;41245;45.384;20.390;2023-07-30T05:52:59;5.85;;;4.07;;
55364;SDS011;41245;45.384;20.390;2023-07-30T05:55:25;11.27;;;4.40;;
55364;SDS011;41245;45.384;20.390;2023-07-30T05:57:51;5.70;;;4.40;;
55364;SDS011;41245;45.384;20.390;2023-07-30T06:00:18;9.30;;;4.53;;
55364;SDS011;41245;45.384;20.390;2023-07-30T06:02:45;4.47;;;4.07;;
55364;SDS011;41245;45.384;20.390;2023-07-30T06:05:11;7.85;;;4.40;;
55364;SDS011;41245;45.384;20.390;2023-07-30T06:07:36;4.97;;;4.20;;
55364;SDS011;41245;45.384;20.390;2023-07-30T06:10:02;6.00;;;4.25;;
55364;SDS011;41245;45.384;20.390;2023-07-30T06:12:28;8.20;;;4.03;;
55364;SDS011;41245;45.384;20.390;2023-07-30T06:14:54;5.80;;;4.03;;
55364;SDS011;41245;45.384;20.390;2023-07-30T06:17:19;3.90;;;3.47;;
55364;SDS011;41245;45.384;20.390;2023-07-30T06:19:45;5.15;;;4.03;;
55364;SDS011;41245;45.384;20.390;2023-07-30T06:22:11;3.38;;;3.08;;
55364;SDS011;41245;45.384;20.390;2023-07-30T06:24:36;7.68;;;3.95;;
55364;SDS011;41245;45.384;20.390;2023-07-30T06:27:02;10.40;;;4.30;;
55364;SDS011;41245;45.384;20.390;2023-07-30T06:29:28;4.10;;;3.63;;
55364;SDS011;41245;45.384;20.390;2023-07-30T06:31:53;4.75;;;3.67;;
55364;SDS011;41245;45.384;20.390;2023-07-30T06:34:19;6.15;;;3.80;;
55364;SDS011;41245;45.384;20.390;2023-07-30T06:36:45;9.40;;;3.70;;
55364;SDS011;41245;45.384;20.390;2023-07-30T06:39:10;7.70;;;3.70;;
55364;SDS011;41245;45.384;20.390;2023-07-30T06:41:36;9.13;;;4.80;;
55364;SDS011;41245;45.384;20.390;2023-07-30T06:44:02;12.88;;;3.80;;
55364;SDS011;41245;45.384;20.390;2023-07-30T06:46:28;7.22;;;4.13;;
55364;SDS011;41245;45.384;20.390;2023-07-30T06:48:53;5.30;;;3.88;;
55364;SDS011;41245;45.384;20.390;2023-07-30T06:51:19;11.50;;;6.00;;
55364;SDS011;41245;45.384;20.390;2023-07-30T06:53:45;7.03;;;3.72;;
55364;SDS011;41245;45.384;20.390;2023-07-30T06:56:11;6.20;;;4.25;;
55364;SDS011;41245;45.384;20.390;2023-07-30T06:58:36;6.93;;;3.83;;
55364;SDS011;41245;45.384;20.390;2023-07-30T07:01:02;7.40;;;4.18;;
55364;SDS011;41245;45.384;20.390;2023-07-30T07:03:28;6.55;;;4.05;;
55364;SDS011;41245;45.384;20.390;2023-07-30T07:05:54;10.35;;;4.07;;
55364;SDS011;41245;45.384;20.390;2023-07-30T07:08:20;5.75;;;4.05;;
55364;SDS011;41245;45.384;20.390;2023-07-30T07:10:46;8.95;;;3.78;;
55364;SDS011;41245;45.384;20.390;2023-07-30T07:13:12;5.85;;;3.38;;
55364;SDS011;41245;45.384;20.390;2023-07-30T07:15:40;9.43;;;4.82;;
55364;SDS011;41245;45.384;20.390;2023-07-30T07:18:06;5.25;;;4.28;;
55364;SDS011;41245;45.384;20.390;2023-07-30T07:20:32;6.43;;;3.92;;
55364;SDS011;41245;45.384;20.390;2023-07-30T07:22:58;5.72;;;3.50;;
55364;SDS011;41245;45.384;20.390;2023-07-30T07:25:24;8.18;;;3.00;;
55364;SDS011;41245;45.384;20.390;2023-07-30T07:27:50;5.43;;;3.20;;
55364;SDS011;41245;45.384;20.390;2023-07-30T07:30:15;4.97;;;3.45;;
55364;SDS011;41245;45.384;20.390;2023-07-30T07:32:41;6.78;;;3.08;;
55364;SDS011;41245;45.384;20.390;2023-07-30T07:35:07;5.40;;;2.95;;
55364;SDS011;41245;45.384;20.390;2023-07-30T07:37:33;4.18;;;2.88;;
55364;SDS011;41245;45.384;20.390;2023-07-30T07:39:59;5.18;;;3.45;;
55364;SDS011;41245;45.384;20.390;2023-07-30T07:42:24;5.93;;;3.63;;
55364;SDS011;41245;45.384;20.390;2023-07-30T07:44:50;4.65;;;3.58;;
55364;SDS011;41245;45.384;20.390;2023-07-30T07:47:16;6.82;;;3.78;;
55364;SDS011;41245;45.384;20.390;2023-07-30T07:49:41;9.63;;;3.38;;
55364;SDS011;41245;45.384;20.390;2023-07-30T07:52:07;5.72;;;3.50;;
55364;SDS011;41245;45.384;20.390;2023-07-30T07:54:33;8.60;;;3.50;;
55364;SDS011;41245;45.384;20.390;2023-07-30T07:56:59;6.57;;;3.10;;
55364;SDS011;41245;45.384;20.390;2023-07-30T07:59:25;3.55;;;3.00;;
55364;SDS011;41245;45.384;20.390;2023-07-30T08:01:52;4.40;;;2.72;;
55364;SDS011;41245;45.384;20.390;2023-07-30T08:04:18;5.45;;;3.10;;
55364;SDS011;41245;45.384;20.390;2023-07-30T08:06:46;6.30;;;3.53;;
55364;SDS011;41245;45.384;20.390;2023-07-30T08:09:12;9.63;;;3.30;;
55364;SDS011;41245;45.384;20.390;2023-07-30T08:11:38;7.35;;;3.40;;
55364;SDS011;41245;45.384;20.390;2023-07-30T08:14:03;3.40;;;2.70;;
55364;SDS011;41245;45.384;20.390;2023-07-30T08:16:29;7.65;;;3.05;;
55364;SDS011;41245;45.384;20.390;2023-07-30T08:18:55;10.02;;;3.88;;
55364;SDS011;41245;45.384;20.390;2023-07-30T08:21:20;6.38;;;4.07;;
55364;SDS011;41245;45.384;20.390;2023-07-30T08:23:46;7.43;;;3.10;;
55364;SDS011;41245;45.384;20.390;2023-07-30T08:26:12;3.55;;;2.88;;
55364;SDS011;41245;45.384;20.390;2023-07-30T08:28:38;5.28;;;3.08;;
55364;SDS011;41245;45.384;20.390;2023-07-30T08:31:04;6.28;;;3.25;;
55364;SDS011;41245;45.384;20.390;2023-07-30T08:33:31;3.85;;;3.35;;
55364;SDS011;41245;45.384;20.390;2023-07-30T08:35:58;4.78;;;3.15;;
55364;SDS011;41245;45.384;20.390;2023-07-30T08:38:24;3.65;;;2.67;;
55364;SDS011;41245;45.384;20.390;2023-07-30T08:40:51;7.35;;;3.10;;
55364;SDS011;41245;45.384;20.390;2023-07-30T08:43:18;7.72;;;3.17;;
55364;SDS011;41245;45.384;20.390;2023-07-30T08:45:44;4.90;;;2.58;;
55364;SDS011;41245;45.384;20.390;2023-07-30T08:48:10;3.50;;;2.97;;
55364;SDS011;41245;45.384;20.390;2023-07-30T08:50:36;5.07;;;2.53;;
55364;SDS011;41245;45.384;20.390;2023-07-30T08:53:03;3.97;;;2.30;;
55364;SDS011;41245;45.384;20.390;2023-07-30T08:55:32;7.18;;;2.88;;
55364;SDS011;41245;45.384;20.390;2023-07-30T08:57:59;6.67;;;2.93;;
55364;SDS011;41245;45.384;20.390;2023-07-30T09:00:28;4.13;;;3.23;;
55364;SDS011;41245;45.384;20.390;2023-07-30T09:03:03;3.42;;;2.80;;
55364;SDS011;41245;45.384;20.390;2023-07-30T09:05:29;4.97;;;2.42;;
55364;SDS011;41245;45.384;20.390;2023-07-30T09:07:56;6.18;;;2.60;;
55364;SDS011;41245;45.384;20.390;2023-07-30T09:10:23;7.57;;;2.90;;
55364;SDS011;41245;45.384;20.390;2023-07-30T09:12:57;3.92;;;2.63;;
55364;SDS011;41245;45.384;20.390;2023-07-30T09:15:37;8.95;;;2.90;;
55364;SDS011;41245;45.384;20.390;2023-07-30T09:20:36;5.10;;;2.70;;
55364;SDS011;41245;45.384;20.390;2023-07-30T09:23:04;5.32;;;2.88;;
55364;SDS011;41245;45.384;20.390;2023-07-30T09:25:31;3.15;;;2.22;;
55364;SDS011;41245;45.384;20.390;2023-07-30T09:27:57;4.28;;;2.97;;
55364;SDS011;41245;45.384;20.390;2023-07-30T09:30:24;12.93;;;3.53;;
55364;SDS011;41245;45.384;20.390;2023-07-30T09:32:52;10.48;;;2.97;;
55364;SDS011;41245;45.384;20.390;2023-07-30T09:35:19;6.90;;;3.15;;
55364;SDS011;41245;45.384;20.390;2023-07-30T09:37:45;6.00;;;3.00;;
55364;SDS011;41245;45.384;20.390;2023-07-30T09:40:11;5.22;;;2.78;;
55364;SDS011;41245;45.384;20.390;2023-07-30T09:42:42;4.95;;;3.58;;
55364;SDS011;41245;45.384;20.390;2023-07-30T09:45:22;5.53;;;2.95;;
55364;SDS011;41245;45.384;20.390;2023-07-30T09:47:49;5.07;;;3.03;;
55364;SDS011;41245;45.384;20.390;2023-07-30T09:50:17;6.05;;;2.67;;
55364;SDS011;41245;45.384;20.390;2023-07-30T09:52:42;6.70;;;2.72;;
55364;SDS011;41245;45.384;20.390;2023-07-30T09:55:08;6.38;;;2.80;;
55364;SDS011;41245;45.384;20.390;2023-07-30T09:57:35;3.85;;;3.10;;
55364;SDS011;41245;45.384;20.390;2023-07-30T10:00:06;4.78;;;2.53;;
55364;SDS011;41245;45.384;20.390;2023-07-30T10:02:37;3.95;;;2.97;;
55364;SDS011;41245;45.384;20.390;2023-07-30T10:05:06;8.02;;;3.75;;
55364;SDS011;41245;45.384;20.390;2023-07-30T10:07:36;5.88;;;3.40;;
55364;SDS011;41245;45.384;20.390;2023-07-30T10:10:09;4.13;;;2.80;;
55364;SDS011;41245;45.384;20.390;2023-07-30T10:12:36;5.80;;;2.97;;
55364;SDS011;41245;45.384;20.390;2023-07-30T10:15:06;6.10;;;2.58;;
55364;SDS011;41245;45.384;20.390;2023-07-30T10:17:32;3.35;;;2.67;;
55364;SDS011;41245;45.384;20.390;2023-07-30T10:20:02;3.80;;;2.97;;
55364;SDS011;41245;45.384;20.390;2023-07-30T10:22:54;4.75;;;2.92;;
55364;SDS011;41245;45.384;20.390;2023-07-30T10:25:22;3.58;;;2.55;;
55364;SDS011;41245;45.384;20.390;2023-07-30T10:27:53;6.90;;;2.42;;
55364;SDS011;41245;45.384;20.390;2023-07-30T10:30:19;5.88;;;3.25;;
55364;SDS011;41245;45.384;20.390;2023-07-30T10:35:36;4.95;;;3.58;;
55364;SDS011;41245;45.384;20.390;2023-07-30T10:40:59;3.90;;;2.67;;
55364;SDS011;41245;45.384;20.390;2023-07-30T10:43:28;6.82;;;2.78;;
55364;SDS011;41245;45.384;20.390;2023-07-30T10:45:55;3.35;;;3.05;;
55364;SDS011;41245;45.384;20.390;2023-07-30T10:48:29;5.18;;;2.55;;
55364;SDS011;41245;45.384;20.390;2023-07-30T10:51:03;4.45;;;2.78;;
55364;SDS011;41245;45.384;20.390;2023-07-30T10:53:30;8.52;;;2.60;;
55364;SDS011;41245;45.384;20.390;2023-07-30T10:55:59;5.00;;;2.65;;
55364;SDS011;41245;45.384;20.390;2023-07-30T10:58:30;3.00;;;2.70;;
55364;SDS011;41245;45.384;20.390;2023-07-30T11:00:57;9.10;;;2.97;;
55364;SDS011;41245;45.384;20.390;2023-07-30T11:03:26;5.20;;;2.53;;
55364;SDS011;41245;45.384;20.390;2023-07-30T11:08:18;4.32;;;3.42;;
55364;SDS011;41245;45.384;20.390;2023-07-30T11:10:46;4.05;;;3.03;;
55364;SDS011;41245;45.384;20.390;2023-07-30T11:13:15;6.05;;;3.00;;
55364;SDS011;41245;45.384;20.390;2023-07-30T11:15:42;19.98;;;3.90;;
55364;SDS011;41245;45.384;20.390;2023-07-30T11:18:09;8.13;;;3.22;;
55364;SDS011;41245;45.384;20.390;2023-07-30T11:20:36;4.35;;;3.10;;
55364;SDS011;41245;45.384;20.390;2023-07-30T11:23:02;3.08;;;2.78;;
55364;SDS011;41245;45.384;20.390;2023-07-30T11:25:28;4.53;;;2.70;;
55364;SDS011;41245;45.384;20.390;2023-07-30T11:27:53;3.13;;;2.83;;
55364;SDS011;41245;45.384;20.390;2023-07-30T11:30:19;3.08;;;2.65;;
55364;SDS011;41245;45.384;20.390;2023-07-30T11:32:45;3.42;;;2.35;;
55364;SDS011;41245;45.384;20.390;2023-07-30T11:35:11;3.85;;;2.67;;
55364;SDS011;41245;45.384;20.390;2023-07-30T11:37:39;3.53;;;2.47;;
55364;SDS011;41245;45.384;20.390;2023-07-30T11:40:08;4.35;;;2.80;;
55364;SDS011;41245;45.384;20.390;2023-07-30T11:42:37;4.45;;;2.75;;
55364;SDS011;41245;45.384;20.390;2023-07-30T11:45:19;4.63;;;3.17;;
55364;SDS011;41245;45.384;20.390;2023-07-30T11:47:48;4.40;;;3.15;;
55364;SDS011;41245;45.384;20.390;2023-07-30T11:50:15;4.72;;;2.78;;
55364;SDS011;41245;45.384;20.390;2023-07-30T11:52:51;4.43;;;2.53;;
55364;SDS011;41245;45.384;20.390;2023-07-30T11:55:20;8.18;;;2.92;;
55364;SDS011;41245;45.384;20.390;2023-07-30T11:57:48;8.35;;;2.80;;
55364;SDS011;41245;45.384;20.390;2023-07-30T12:00:14;4.15;;;3.08;;
55364;SDS011;41245;45.384;20.390;2023-07-30T12:02:40;4.95;;;2.92;;
55364;SDS011;41245;45.384;20.390;2023-07-30T12:05:09;4.43;;;3.17;;
55364;SDS011;41245;45.384;20.390;2023-07-30T12:07:39;9.45;;;3.33;;
55364;SDS011;41245;45.384;20.390;2023-07-30T12:10:07;9.45;;;3.55;;
55364;SDS011;41245;45.384;20.390;2023-07-30T12:12:37;4.65;;;2.80;;
55364;SDS011;41245;45.384;20.390;2023-07-30T12:15:12;9.73;;;2.70;;
55364;SDS011;41245;45.384;20.390;2023-07-30T12:17:38;6.10;;;2.97;;
55364;SDS011;41245;45.384;20.390;2023-07-30T12:20:05;5.75;;;2.55;;
55364;SDS011;41245;45.384;20.390;2023-07-30T12:22:34;3.22;;;2.50;;
55364;SDS011;41245;45.384;20.390;2023-07-30T12:25:00;3.83;;;2.40;;
55364;SDS011;41245;45.384;20.390;2023-07-30T12:27:30;6.07;;;3.22;;
55364;SDS011;41245;45.384;20.390;2023-07-30T12:29:56;4.90;;;2.58;;
55364;SDS011;41245;45.384;20.390;2023-07-30T12:32:23;3.45;;;2.60;;
55364;SDS011;41245;45.384;20.390;2023-07-30T12:34:49;4.65;;;3.20;;
55364;SDS011;41245;45.384;20.390;2023-07-30T12:37:15;7.75;;;2.83;;
55364;SDS011;41245;45.384;20.390;2023-07-30T12:39:41;4.18;;;2.80;;
55364;SDS011;41245;45.384;20.390;2023-07-30T12:42:06;3.05;;;2.63;;
55364;SDS011;41245;45.384;20.390;2023-07-30T12:44:32;3.78;;;2.75;;
55364;SDS011;41245;45.384;20.390;2023-07-30T12:46:58;7.75;;;2.80;;
55364;SDS011;41245;45.384;20.390;2023-07-30T12:49:24;4.15;;;2.50;;
55364;SDS011;41245;45.384;20.390;2023-07-30T12:51:50;5.65;;;2.70;;
55364;SDS011;41245;45.384;20.390;2023-07-30T12:54:16;3.25;;;2.30;;
55364;SDS011;41245;45.384;20.390;2023-07-30T12:56:42;4.13;;;2.92;;
55364;SDS011;41245;45.384;20.390;2023-07-30T12:59:08;2.60;;;2.20;;
55364;SDS011;41245;45.384;20.390;2023-07-30T13:01:34;3.67;;;2.90;;
55364;SDS011;41245;45.384;20.390;2023-07-30T13:04:00;9.93;;;2.60;;
55364;SDS011;41245;45.384;20.390;2023-07-30T13:06:26;11.60;;;3.10;;
55364;SDS011;41245;45.384;20.390;2023-07-30T13:08:52;13.20;;;3.35;;
55364;SDS011;41245;45.384;20.390;2023-07-30T13:11:18;7.22;;;3.35;;
55364;SDS011;41245;45.384;20.390;2023-07-30T13:13:45;7.85;;;2.60;;
55364;SDS011;41245;45.384;20.390;2023-07-30T13:16:10;8.15;;;2.72;;
55364;SDS011;41245;45.384;20.390;2023-07-30T13:18:36;4.72;;;2.42;;
55364;SDS011;41245;45.384;20.390;2023-07-30T13:21:02;5.13;;;2.70;;
55364;SDS011;41245;45.384;20.390;2023-07-30T13:23:28;5.55;;;2.40;;
55364;SDS011;41245;45.384;20.390;2023-07-30T13:25:55;6.35;;;2.67;;
55364;SDS011;41245;45.384;20.390;2023-07-30T13:28:21;4.07;;;2.45;;
55364;SDS011;41245;45.384;20.390;2023-07-30T13:30:46;5.25;;;2.67;;
55364;SDS011;41245;45.384;20.390;2023-07-30T13:33:12;5.60;;;2.80;;
55364;SDS011;41245;45.384;20.390;2023-07-30T13:35:38;2.65;;;2.30;;
55364;SDS011;41245;45.384;20.390;2023-07-30T13:38:03;8.88;;;2.28;;
55364;SDS011;41245;45.384;20.390;2023-07-30T13:40:29;8.00;;;2.35;;
55364;SDS011;41245;45.384;20.390;2023-07-30T13:42:55;7.88;;;3.20;;
55364;SDS011;41245;45.384;20.390;2023-07-30T13:45:20;6.30;;;2.63;;
55364;SDS011;41245;45.384;20.390;2023-07-30T13:47:46;4.45;;;2.63;;
55364;SDS011;41245;45.384;20.390;2023-07-30T13:50:12;3.92;;;2.20;;
55364;SDS011;41245;45.384;20.390;2023-07-30T13:52:37;3.40;;;1.70;;
55364;SDS011;41245;45.384;20.390;2023-07-30T13:55:03;4.00;;;2.50;;
55364;SDS011;41245;45.384;20.390;2023-07-30T13:57:29;6.03;;;2.30;;
55364;SDS011;41245;45.384;20.390;2023-07-30T13:59:55;2.60;;;2.20;;
55364;SDS011;41245;45.384;20.390;2023-07-30T14:02:20;7.35;;;2.30;;
55364;SDS011;41245;45.384;20.390;2023-07-30T14:04:46;9.98;;;2.83;;
55364;SDS011;41245;45.384;20.390;2023-07-30T14:07:12;5.75;;;2.92;;
55364;SDS011;41245;45.384;20.390;2023-07-30T14:09:38;5.20;;;2.88;;
55364;SDS011;41245;45.384;20.390;2023-07-30T14:12:03;7.38;;;2.65;;
55364;SDS011;41245;45.384;20.390;2023-07-30T14:14:29;4.07;;;2.75;;
55364;SDS011;41245;45.384;20.390;2023-07-30T14:16:55;6.50;;;2.10;;
55364;SDS011;41245;45.384;20.390;2023-07-30T14:19:21;7.50;;;3.25;;
55364;SDS011;41245;45.384;20.390;2023-07-30T14:21:46;3.55;;;2.08;;
55364;SDS011;41245;45.384;20.390;2023-07-30T14:24:12;3.67;;;2.40;;
55364;SDS011;41245;45.384;20.390;2023-07-30T14:26:39;6.63;;;2.55;;
55364;SDS011;41245;45.384;20.390;2023-07-30T14:29:05;3.03;;;2.00;;
55364;SDS011;41245;45.384;20.390;2023-07-30T14:31:31;2.90;;;2.08;;
55364;SDS011;41245;45.384;20.390;2023-07-30T14:33:56;4.35;;;2.03;;
55364;SDS011;41245;45.384;20.390;2023-07-30T14:36:24;2.90;;;2.40;;